sensor_id;sensor_type;location;lat;lon;timestamp;P1;durP1;ratioP1;P2;durP2;ratioP2
23608;SDS011;11982;50.810;4.442;2023-07-02T00:00:29;55.10;;;23.10;;
23608;SDS011;11982;50.810;4.442;2023-07-02T00:02:55;49.45;;;23.92;;
23608;SDS011;11982;50.810;4.442;2023-07-02T00:05:21;55.53;;;23.17;;
23608;SDS011;11982;50.810;4.442;2023-07-02T00:07:46;52.30;;;22.83;;
23608;SDS011;11982;50.810;4.442;2023-07-02T00:10:12;49.88;;;23.20;;
23608;SDS011;11982;50.810;4.442;2023-07-02T00:12:38;52.38;;;24.00;;
23608;SDS011;11982;50.810;4.442;2023-07-02T00:15:03;52.60;;;24.00;;
23608;SDS011;11982;50.810;4.442;2023-07-02T00:17:30;56.00;;;23.45;;
23608;SDS011;11982;50.810;4.442;2023-07-02T00:19:55;55.10;;;23.23;;
23608;SDS011;11982;50.810;4.442;2023-07-02T00:22:22;54.95;;;24.58;;
23608;SDS011;11982;50.810;4.442;2023-07-02T00:24:48;53.95;;;24.98;;
23608;SDS011;11982;50.810;4.442;2023-07-02T00:27:16;53.70;;;24.90;;
23608;SDS011;11982;50.810;4.442;2023-07-02T00:29:41;61.95;;;23.23;;
23608;SDS011;11982;50.810;4.442;2023-07-02T00:32:07;60.85;;;23.85;;
23608;SDS011;11982;50.810;4.442;2023-07-02T00:34:33;56.03;;;24.35;;
23608;SDS011;11982;50.810;4.442;2023-07-02T00:36:58;61.92;;;25.83;;
23608;SDS011;11982;50.810;4.442;2023-07-02T00:39:24;51.83;;;25.55;;
23608;SDS011;11982;50.810;4.442;2023-07-02T00:41:50;55.75;;;25.10;;
23608;SDS011;11982;50.810;4.442;2023-07-02T00:44:15;51.55;;;25.02;;
23608;SDS011;11982;50.810;4.442;2023-07-02T00:46:42;54.78;;;25.00;;
23608;SDS011;11982;50.810;4.442;2023-07-02T00:49:07;59.05;;;25.02;;
23608;SDS011;11982;50.810;4.442;2023-07-02T00:51:34;66.10;;;26.35;;
23608;SDS011;11982;50.810;4.442;2023-07-02T00:54:00;56.53;;;26.58;;
23608;SDS011;11982;50.810;4.442;2023-07-02T00:56:26;63.00;;;26.33;;
23608;SDS011;11982;50.810;4.442;2023-07-02T00:58:55;65.45;;;27.38;;
23608;SDS011;11982;50.810;4.442;2023-07-02T01:01:24;54.47;;;25.83;;
23608;SDS011;11982;50.810;4.442;2023-07-02T01:03:55;62.40;;;27.70;;
23608;SDS011;11982;50.810;4.442;2023-07-02T01:06:31;55.22;;;25.35;;
23608;SDS011;11982;50.810;4.442;2023-07-02T01:09:00;59.40;;;26.98;;
23608;SDS011;11982;50.810;4.442;2023-07-02T01:11:29;67.13;;;28.05;;
23608;SDS011;11982;50.810;4.442;2023-07-02T01:13:59;63.92;;;26.00;;
23608;SDS011;11982;50.810;4.442;2023-07-02T01:16:30;65.65;;;28.70;;
23608;SDS011;11982;50.810;4.442;2023-07-02T01:18:58;70.15;;;27.85;;
23608;SDS011;11982;50.810;4.442;2023-07-02T01:21:28;59.80;;;26.85;;
23608;SDS011;11982;50.810;4.442;2023-07-02T01:23:54;58.45;;;27.30;;
23608;SDS011;11982;50.810;4.442;2023-07-02T01:26:20;62.35;;;28.35;;
23608;SDS011;11982;50.810;4.442;2023-07-02T01:28:45;66.00;;;28.20;;
23608;SDS011;11982;50.810;4.442;2023-07-02T01:31:11;62.63;;;28.83;;
23608;SDS011;11982;50.810;4.442;2023-07-02T01:33:37;64.00;;;29.95;;
23608;SDS011;11982;50.810;4.442;2023-07-02T01:36:03;73.90;;;29.08;;
23608;SDS011;11982;50.810;4.442;2023-07-02T01:38:29;70.40;;;29.17;;
23608;SDS011;11982;50.810;4.442;2023-07-02T01:40:54;63.85;;;29.95;;
23608;SDS011;11982;50.810;4.442;2023-07-02T01:43:20;65.00;;;27.85;;
23608;SDS011;11982;50.810;4.442;2023-07-02T01:45:45;65.28;;;30.73;;
23608;SDS011;11982;50.810;4.442;2023-07-02T01:48:11;66.10;;;30.48;;
23608;SDS011;11982;50.810;4.442;2023-07-02T01:50:37;60.67;;;28.70;;
23608;SDS011;11982;50.810;4.442;2023-07-02T01:53:02;65.22;;;29.83;;
23608;SDS011;11982;50.810;4.442;2023-07-02T01:55:28;69.28;;;29.27;;
23608;SDS011;11982;50.810;4.442;2023-07-02T01:57:54;70.47;;;29.27;;
23608;SDS011;11982;50.810;4.442;2023-07-02T02:00:19;72.30;;;30.75;;
23608;SDS011;11982;50.810;4.442;2023-07-02T02:02:45;68.97;;;30.65;;
23608;SDS011;11982;50.810;4.442;2023-07-02T02:05:11;67.20;;;29.50;;
23608;SDS011;11982;50.810;4.442;2023-07-02T02:07:36;78.95;;;31.73;;
23608;SDS011;11982;50.810;4.442;2023-07-02T02:10:03;76.43;;;30.20;;
23608;SDS011;11982;50.810;4.442;2023-07-02T02:12:29;74.97;;;31.25;;
23608;SDS011;11982;50.810;4.442;2023-07-02T02:14:55;80.30;;;33.20;;
23608;SDS011;11982;50.810;4.442;2023-07-02T02:17:21;79.95;;;32.10;;
23608;SDS011;11982;50.810;4.442;2023-07-02T02:19:48;68.53;;;31.23;;
23608;SDS011;11982;50.810;4.442;2023-07-02T02:22:14;80.70;;;32.95;;
23608;SDS011;11982;50.810;4.442;2023-07-02T02:24:40;79.93;;;32.28;;
23608;SDS011;11982;50.810;4.442;2023-07-02T02:27:06;77.75;;;32.78;;
23608;SDS011;11982;50.810;4.442;2023-07-02T02:29:32;75.35;;;31.80;;
23608;SDS011;11982;50.810;4.442;2023-07-02T02:31:57;82.05;;;32.83;;
23608;SDS011;11982;50.810;4.442;2023-07-02T02:34:23;76.50;;;33.47;;
23608;SDS011;11982;50.810;4.442;2023-07-02T02:36:49;81.32;;;32.50;;
23608;SDS011;11982;50.810;4.442;2023-07-02T02:39:15;85.68;;;33.67;;
23608;SDS011;11982;50.810;4.442;2023-07-02T02:41:40;87.97;;;32.60;;
23608;SDS011;11982;50.810;4.442;2023-07-02T02:44:06;85.13;;;35.70;;
23608;SDS011;11982;50.810;4.442;2023-07-02T02:46:32;83.78;;;34.88;;
23608;SDS011;11982;50.810;4.442;2023-07-02T02:48:58;82.50;;;33.85;;
23608;SDS011;11982;50.810;4.442;2023-07-02T02:51:24;88.18;;;35.30;;
23608;SDS011;11982;50.810;4.442;2023-07-02T02:53:49;82.30;;;34.85;;
23608;SDS011;11982;50.810;4.442;2023-07-02T02:56:15;91.57;;;35.85;;
23608;SDS011;11982;50.810;4.442;2023-07-02T02:58:41;89.57;;;36.35;;
23608;SDS011;11982;50.810;4.442;2023-07-02T03:01:07;88.50;;;36.05;;
23608;SDS011;11982;50.810;4.442;2023-07-02T03:03:36;91.95;;;36.38;;
23608;SDS011;11982;50.810;4.442;2023-07-02T03:06:04;97.60;;;36.28;;
23608;SDS011;11982;50.810;4.442;2023-07-02T03:08:30;88.90;;;36.28;;
23608;SDS011;11982;50.810;4.442;2023-07-02T03:10:56;99.47;;;38.05;;
23608;SDS011;11982;50.810;4.442;2023-07-02T03:13:22;86.80;;;36.00;;
23608;SDS011;11982;50.810;4.442;2023-07-02T03:15:48;94.07;;;37.42;;
23608;SDS011;11982;50.810;4.442;2023-07-02T03:18:13;91.70;;;36.13;;
23608;SDS011;11982;50.810;4.442;2023-07-02T03:20:39;87.70;;;37.38;;
23608;SDS011;11982;50.810;4.442;2023-07-02T03:23:05;104.45;;;37.33;;
23608;SDS011;11982;50.810;4.442;2023-07-02T03:25:30;88.55;;;37.00;;
23608;SDS011;11982;50.810;4.442;2023-07-02T03:27:56;94.45;;;35.97;;
23608;SDS011;11982;50.810;4.442;2023-07-02T03:30:21;97.63;;;39.33;;
23608;SDS011;11982;50.810;4.442;2023-07-02T03:32:47;88.80;;;37.03;;
23608;SDS011;11982;50.810;4.442;2023-07-02T03:35:13;99.75;;;38.45;;
23608;SDS011;11982;50.810;4.442;2023-07-02T03:37:38;97.95;;;38.42;;
23608;SDS011;11982;50.810;4.442;2023-07-02T03:40:08;107.85;;;39.28;;
23608;SDS011;11982;50.810;4.442;2023-07-02T03:42:34;115.45;;;40.95;;
23608;SDS011;11982;50.810;4.442;2023-07-02T03:45:00;99.68;;;39.70;;
23608;SDS011;11982;50.810;4.442;2023-07-02T03:47:26;102.85;;;39.47;;
23608;SDS011;11982;50.810;4.442;2023-07-02T03:49:51;113.18;;;40.30;;
23608;SDS011;11982;50.810;4.442;2023-07-02T03:52:17;97.35;;;38.80;;
23608;SDS011;11982;50.810;4.442;2023-07-02T03:54:43;103.90;;;41.72;;
23608;SDS011;11982;50.810;4.442;2023-07-02T03:57:08;93.75;;;36.88;;
23608;SDS011;11982;50.810;4.442;2023-07-02T03:59:34;97.93;;;38.72;;
23608;SDS011;11982;50.810;4.442;2023-07-02T04:02:00;102.03;;;39.50;;
23608;SDS011;11982;50.810;4.442;2023-07-02T04:04:25;97.68;;;41.63;;
23608;SDS011;11982;50.810;4.442;2023-07-02T04:06:51;99.85;;;40.40;;
23608;SDS011;11982;50.810;4.442;2023-07-02T04:09:17;105.72;;;40.22;;
23608;SDS011;11982;50.810;4.442;2023-07-02T04:11:43;95.22;;;39.55;;
23608;SDS011;11982;50.810;4.442;2023-07-02T04:14:09;104.57;;;41.42;;
23608;SDS011;11982;50.810;4.442;2023-07-02T04:16:35;105.35;;;39.28;;
23608;SDS011;11982;50.810;4.442;2023-07-02T04:19:00;95.55;;;40.22;;
23608;SDS011;11982;50.810;4.442;2023-07-02T04:21:32;100.95;;;41.30;;
23608;SDS011;11982;50.810;4.442;2023-07-02T04:23:58;106.18;;;41.63;;
23608;SDS011;11982;50.810;4.442;2023-07-02T04:26:23;108.22;;;40.17;;
23608;SDS011;11982;50.810;4.442;2023-07-02T04:28:51;98.72;;;42.63;;
23608;SDS011;11982;50.810;4.442;2023-07-02T04:31:18;102.00;;;39.38;;
23608;SDS011;11982;50.810;4.442;2023-07-02T04:33:44;116.38;;;42.80;;
23608;SDS011;11982;50.810;4.442;2023-07-02T04:36:10;105.22;;;41.20;;
23608;SDS011;11982;50.810;4.442;2023-07-02T04:38:35;98.70;;;40.72;;
23608;SDS011;11982;50.810;4.442;2023-07-02T04:41:01;104.45;;;42.05;;
23608;SDS011;11982;50.810;4.442;2023-07-02T04:43:33;108.18;;;42.05;;
23608;SDS011;11982;50.810;4.442;2023-07-02T04:45:59;116.53;;;42.25;;
23608;SDS011;11982;50.810;4.442;2023-07-02T04:48:25;105.07;;;43.35;;
23608;SDS011;11982;50.810;4.442;2023-07-02T04:50:51;105.88;;;40.38;;
23608;SDS011;11982;50.810;4.442;2023-07-02T04:53:16;114.45;;;44.05;;
23608;SDS011;11982;50.810;4.442;2023-07-02T04:55:42;113.22;;;42.47;;
23608;SDS011;11982;50.810;4.442;2023-07-02T04:58:08;111.95;;;42.22;;
23608;SDS011;11982;50.810;4.442;2023-07-02T05:00:34;93.07;;;40.15;;
23608;SDS011;11982;50.810;4.442;2023-07-02T05:03:00;98.65;;;40.25;;
23608;SDS011;11982;50.810;4.442;2023-07-02T05:05:25;102.10;;;40.92;;
23608;SDS011;11982;50.810;4.442;2023-07-02T05:07:51;101.50;;;39.35;;
23608;SDS011;11982;50.810;4.442;2023-07-02T05:10:17;98.53;;;40.40;;
23608;SDS011;11982;50.810;4.442;2023-07-02T05:12:42;93.55;;;39.28;;
23608;SDS011;11982;50.810;4.442;2023-07-02T05:15:09;101.80;;;39.65;;
23608;SDS011;11982;50.810;4.442;2023-07-02T05:17:37;92.88;;;39.35;;
23608;SDS011;11982;50.810;4.442;2023-07-02T05:20:03;100.00;;;39.05;;
23608;SDS011;11982;50.810;4.442;2023-07-02T05:22:29;87.63;;;37.15;;
23608;SDS011;11982;50.810;4.442;2023-07-02T05:24:55;100.95;;;38.78;;
23608;SDS011;11982;50.810;4.442;2023-07-02T05:27:21;85.32;;;36.70;;
23608;SDS011;11982;50.810;4.442;2023-07-02T05:29:46;101.28;;;38.88;;
23608;SDS011;11982;50.810;4.442;2023-07-02T05:32:12;99.53;;;37.85;;
23608;SDS011;11982;50.810;4.442;2023-07-02T05:34:38;99.22;;;39.83;;
23608;SDS011;11982;50.810;4.442;2023-07-02T05:37:04;97.07;;;38.90;;
23608;SDS011;11982;50.810;4.442;2023-07-02T05:39:30;96.15;;;39.70;;
23608;SDS011;11982;50.810;4.442;2023-07-02T05:41:56;89.30;;;39.08;;
23608;SDS011;11982;50.810;4.442;2023-07-02T05:44:22;92.45;;;39.22;;
23608;SDS011;11982;50.810;4.442;2023-07-02T05:46:48;98.05;;;39.40;;
23608;SDS011;11982;50.810;4.442;2023-07-02T05:49:13;108.43;;;41.45;;
23608;SDS011;11982;50.810;4.442;2023-07-02T05:51:39;93.60;;;38.53;;
23608;SDS011;11982;50.810;4.442;2023-07-02T05:54:05;94.13;;;38.78;;
23608;SDS011;11982;50.810;4.442;2023-07-02T05:56:31;94.10;;;38.33;;
23608;SDS011;11982;50.810;4.442;2023-07-02T05:58:57;89.47;;;38.92;;
23608;SDS011;11982;50.810;4.442;2023-07-02T06:01:23;83.82;;;38.72;;
23608;SDS011;11982;50.810;4.442;2023-07-02T06:03:51;89.32;;;38.20;;
23608;SDS011;11982;50.810;4.442;2023-07-02T06:06:17;98.03;;;40.00;;
23608;SDS011;11982;50.810;4.442;2023-07-02T06:08:43;85.80;;;36.53;;
23608;SDS011;11982;50.810;4.442;2023-07-02T06:11:12;83.18;;;36.90;;
23608;SDS011;11982;50.810;4.442;2023-07-02T06:13:37;84.80;;;37.95;;
23608;SDS011;11982;50.810;4.442;2023-07-02T06:16:03;90.85;;;35.72;;
23608;SDS011;11982;50.810;4.442;2023-07-02T06:18:29;86.57;;;35.97;;
23608;SDS011;11982;50.810;4.442;2023-07-02T06:20:54;86.18;;;34.80;;
23608;SDS011;11982;50.810;4.442;2023-07-02T06:23:20;81.53;;;35.33;;
23608;SDS011;11982;50.810;4.442;2023-07-02T06:25:46;83.38;;;37.33;;
23608;SDS011;11982;50.810;4.442;2023-07-02T06:28:11;81.32;;;35.72;;
23608;SDS011;11982;50.810;4.442;2023-07-02T06:30:37;79.70;;;35.88;;
23608;SDS011;11982;50.810;4.442;2023-07-02T06:33:03;81.97;;;35.47;;
23608;SDS011;11982;50.810;4.442;2023-07-02T06:35:28;82.35;;;34.22;;
23608;SDS011;11982;50.810;4.442;2023-07-02T06:37:54;79.05;;;33.97;;
23608;SDS011;11982;50.810;4.442;2023-07-02T06:40:20;72.80;;;32.60;;
23608;SDS011;11982;50.810;4.442;2023-07-02T06:42:47;74.20;;;34.08;;
23608;SDS011;11982;50.810;4.442;2023-07-02T06:45:13;82.60;;;34.83;;
23608;SDS011;11982;50.810;4.442;2023-07-02T06:47:39;80.55;;;32.25;;
23608;SDS011;11982;50.810;4.442;2023-07-02T06:50:04;75.93;;;32.45;;
23608;SDS011;11982;50.810;4.442;2023-07-02T06:52:30;72.80;;;31.67;;
23608;SDS011;11982;50.810;4.442;2023-07-02T06:54:56;73.43;;;31.67;;
23608;SDS011;11982;50.810;4.442;2023-07-02T06:57:22;75.80;;;31.42;;
23608;SDS011;11982;50.810;4.442;2023-07-02T06:59:48;73.25;;;31.10;;
23608;SDS011;11982;50.810;4.442;2023-07-02T07:02:15;73.10;;;31.98;;
23608;SDS011;11982;50.810;4.442;2023-07-02T07:04:40;75.60;;;32.50;;
23608;SDS011;11982;50.810;4.442;2023-07-02T07:07:06;70.10;;;30.65;;
23608;SDS011;11982;50.810;4.442;2023-07-02T07:09:32;68.07;;;30.38;;
23608;SDS011;11982;50.810;4.442;2023-07-02T07:11:57;68.22;;;30.13;;
23608;SDS011;11982;50.810;4.442;2023-07-02T07:14:23;66.20;;;28.25;;
23608;SDS011;11982;50.810;4.442;2023-07-02T07:16:49;56.53;;;26.38;;
23608;SDS011;11982;50.810;4.442;2023-07-02T07:19:15;60.58;;;26.88;;
23608;SDS011;11982;50.810;4.442;2023-07-02T07:21:41;68.65;;;28.85;;
23608;SDS011;11982;50.810;4.442;2023-07-02T07:24:08;60.67;;;27.27;;
23608;SDS011;11982;50.810;4.442;2023-07-02T07:26:34;61.70;;;26.70;;
23608;SDS011;11982;50.810;4.442;2023-07-02T07:29:00;58.10;;;25.00;;
23608;SDS011;11982;50.810;4.442;2023-07-02T07:31:25;59.50;;;23.98;;
23608;SDS011;11982;50.810;4.442;2023-07-02T07:33:51;56.35;;;25.48;;
23608;SDS011;11982;50.810;4.442;2023-07-02T07:36:17;55.45;;;24.52;;
23608;SDS011;11982;50.810;4.442;2023-07-02T07:38:43;56.30;;;21.92;;
23608;SDS011;11982;50.810;4.442;2023-07-02T07:41:09;50.45;;;21.77;;
23608;SDS011;11982;50.810;4.442;2023-07-02T07:43:34;42.47;;;19.92;;
23608;SDS011;11982;50.810;4.442;2023-07-02T07:46:00;45.25;;;19.52;;
23608;SDS011;11982;50.810;4.442;2023-07-02T07:48:26;44.75;;;19.25;;
23608;SDS011;11982;50.810;4.442;2023-07-02T07:50:52;43.85;;;18.40;;
23608;SDS011;11982;50.810;4.442;2023-07-02T07:53:17;46.60;;;19.52;;
23608;SDS011;11982;50.810;4.442;2023-07-02T07:55:43;38.50;;;18.30;;
23608;SDS011;11982;50.810;4.442;2023-07-02T07:58:09;41.90;;;18.38;;
23608;SDS011;11982;50.810;4.442;2023-07-02T08:00:35;46.60;;;19.52;;
23608;SDS011;11982;50.810;4.442;2023-07-02T08:03:01;45.60;;;19.58;;
23608;SDS011;11982;50.810;4.442;2023-07-02T08:05:28;41.13;;;19.15;;
23608;SDS011;11982;50.810;4.442;2023-07-02T08:07:54;42.08;;;19.05;;
23608;SDS011;11982;50.810;4.442;2023-07-02T08:10:20;45.10;;;18.85;;
23608;SDS011;11982;50.810;4.442;2023-07-02T08:12:45;39.97;;;18.75;;
23608;SDS011;11982;50.810;4.442;2023-07-02T08:15:12;44.92;;;19.42;;
23608;SDS011;11982;50.810;4.442;2023-07-02T08:17:38;44.53;;;20.27;;
23608;SDS011;11982;50.810;4.442;2023-07-02T08:20:04;58.58;;;21.05;;
23608;SDS011;11982;50.810;4.442;2023-07-02T08:22:34;53.33;;;19.80;;
23608;SDS011;11982;50.810;4.442;2023-07-02T08:25:03;50.33;;;19.17;;
23608;SDS011;11982;50.810;4.442;2023-07-02T08:27:29;48.13;;;18.52;;
23608;SDS011;11982;50.810;4.442;2023-07-02T08:29:55;49.20;;;20.17;;
23608;SDS011;11982;50.810;4.442;2023-07-02T08:32:21;44.08;;;18.98;;
23608;SDS011;11982;50.810;4.442;2023-07-02T08:34:46;44.40;;;19.55;;
23608;SDS011;11982;50.810;4.442;2023-07-02T08:37:12;41.35;;;18.25;;
23608;SDS011;11982;50.810;4.442;2023-07-02T08:39:38;42.40;;;18.92;;
23608;SDS011;11982;50.810;4.442;2023-07-02T08:42:07;38.42;;;17.83;;
23608;SDS011;11982;50.810;4.442;2023-07-02T08:44:33;40.17;;;17.42;;
23608;SDS011;11982;50.810;4.442;2023-07-02T08:47:00;45.72;;;19.75;;
23608;SDS011;11982;50.810;4.442;2023-07-02T08:49:26;45.58;;;17.30;;
23608;SDS011;11982;50.810;4.442;2023-07-02T08:51:52;42.50;;;19.05;;
23608;SDS011;11982;50.810;4.442;2023-07-02T08:54:18;45.70;;;18.33;;
23608;SDS011;11982;50.810;4.442;2023-07-02T08:56:44;43.28;;;17.75;;
23608;SDS011;11982;50.810;4.442;2023-07-02T08:59:11;47.25;;;19.52;;
23608;SDS011;11982;50.810;4.442;2023-07-02T09:01:50;49.53;;;19.95;;
23608;SDS011;11982;50.810;4.442;2023-07-02T09:06:48;45.03;;;20.77;;
23608;SDS011;11982;50.810;4.442;2023-07-02T09:09:14;48.35;;;19.42;;
23608;SDS011;11982;50.810;4.442;2023-07-02T09:11:47;42.33;;;18.80;;
23608;SDS011;11982;50.810;4.442;2023-07-02T09:14:23;40.77;;;18.50;;
23608;SDS011;11982;50.810;4.442;2023-07-02T09:17:00;50.40;;;19.73;;
23608;SDS011;11982;50.810;4.442;2023-07-02T09:19:30;42.55;;;18.83;;
23608;SDS011;11982;50.810;4.442;2023-07-02T09:21:57;52.17;;;19.13;;
23608;SDS011;11982;50.810;4.442;2023-07-02T09:24:27;42.03;;;18.45;;
23608;SDS011;11982;50.810;4.442;2023-07-02T09:26:55;42.47;;;18.00;;
23608;SDS011;11982;50.810;4.442;2023-07-02T09:29:29;41.63;;;19.05;;
23608;SDS011;11982;50.810;4.442;2023-07-02T09:32:02;44.92;;;18.73;;
23608;SDS011;11982;50.810;4.442;2023-07-02T09:34:32;40.97;;;18.30;;
23608;SDS011;11982;50.810;4.442;2023-07-02T09:37:00;41.88;;;17.95;;
23608;SDS011;11982;50.810;4.442;2023-07-02T09:39:28;40.08;;;16.80;;
23608;SDS011;11982;50.810;4.442;2023-07-02T09:42:01;36.15;;;16.13;;
23608;SDS011;11982;50.810;4.442;2023-07-02T09:44:30;40.78;;;17.33;;
23608;SDS011;11982;50.810;4.442;2023-07-02T09:47:01;33.97;;;15.80;;
23608;SDS011;11982;50.810;4.442;2023-07-02T09:49:29;37.13;;;16.27;;
23608;SDS011;11982;50.810;4.442;2023-07-02T09:51:58;39.88;;;16.75;;
23608;SDS011;11982;50.810;4.442;2023-07-02T09:54:26;35.92;;;16.13;;
23608;SDS011;11982;50.810;4.442;2023-07-02T09:56:52;37.38;;;15.13;;
23608;SDS011;11982;50.810;4.442;2023-07-02T09:59:18;35.00;;;15.95;;
23608;SDS011;11982;50.810;4.442;2023-07-02T10:01:44;40.22;;;16.20;;
23608;SDS011;11982;50.810;4.442;2023-07-02T10:04:11;32.15;;;15.05;;
23608;SDS011;11982;50.810;4.442;2023-07-02T10:09:37;37.47;;;16.13;;
23608;SDS011;11982;50.810;4.442;2023-07-02T10:12:19;37.55;;;15.30;;
23608;SDS011;11982;50.810;4.442;2023-07-02T10:14:46;31.38;;;15.23;;
23608;SDS011;11982;50.810;4.442;2023-07-02T10:17:23;36.33;;;15.30;;
23608;SDS011;11982;50.810;4.442;2023-07-02T10:19:51;37.90;;;16.08;;
23608;SDS011;11982;50.810;4.442;2023-07-02T10:22:18;30.15;;;15.65;;
23608;SDS011;11982;50.810;4.442;2023-07-02T10:25:23;36.95;;;16.08;;
23608;SDS011;11982;50.810;4.442;2023-07-02T10:27:39;34.72;;;15.95;;
23608;SDS011;11982;50.810;4.442;2023-07-02T10:30:06;38.50;;;16.38;;
23608;SDS011;11982;50.810;4.442;2023-07-02T10:32:34;37.70;;;16.95;;
23608;SDS011;11982;50.810;4.442;2023-07-02T10:35:01;35.15;;;16.05;;
23608;SDS011;11982;50.810;4.442;2023-07-02T10:37:35;36.60;;;16.33;;
23608;SDS011;11982;50.810;4.442;2023-07-02T10:40:03;42.95;;;17.23;;
23608;SDS011;11982;50.810;4.442;2023-07-02T10:42:31;31.80;;;15.30;;
23608;SDS011;11982;50.810;4.442;2023-07-02T10:44:59;39.78;;;16.60;;
23608;SDS011;11982;50.810;4.442;2023-07-02T10:47:24;41.85;;;16.23;;
23608;SDS011;11982;50.810;4.442;2023-07-02T10:49:50;40.92;;;16.38;;
23608;SDS011;11982;50.810;4.442;2023-07-02T10:52:16;39.67;;;15.85;;
23608;SDS011;11982;50.810;4.442;2023-07-02T10:54:42;41.88;;;16.15;;
23608;SDS011;11982;50.810;4.442;2023-07-02T10:57:10;41.85;;;17.30;;
23608;SDS011;11982;50.810;4.442;2023-07-02T10:59:38;36.38;;;15.90;;
23608;SDS011;11982;50.810;4.442;2023-07-02T11:02:04;38.05;;;16.27;;
23608;SDS011;11982;50.810;4.442;2023-07-02T11:04:31;38.03;;;17.38;;
23608;SDS011;11982;50.810;4.442;2023-07-02T11:06:58;35.90;;;15.40;;
23608;SDS011;11982;50.810;4.442;2023-07-02T11:09:25;37.20;;;15.25;;
23608;SDS011;11982;50.810;4.442;2023-07-02T11:11:51;36.13;;;15.80;;
23608;SDS011;11982;50.810;4.442;2023-07-02T11:16:56;41.17;;;15.43;;
23608;SDS011;11982;50.810;4.442;2023-07-02T11:19:23;33.92;;;14.48;;
23608;SDS011;11982;50.810;4.442;2023-07-02T11:21:50;33.85;;;14.52;;
23608;SDS011;11982;50.810;4.442;2023-07-02T11:24:25;39.85;;;14.50;;
23608;SDS011;11982;50.810;4.442;2023-07-02T11:26:53;29.88;;;14.85;;
23608;SDS011;11982;50.810;4.442;2023-07-02T11:29:18;30.35;;;14.85;;
23608;SDS011;11982;50.810;4.442;2023-07-02T11:31:44;36.50;;;14.13;;
23608;SDS011;11982;50.810;4.442;2023-07-02T11:34:14;36.72;;;15.15;;
23608;SDS011;11982;50.810;4.442;2023-07-02T11:36:40;35.03;;;14.10;;
23608;SDS011;11982;50.810;4.442;2023-07-02T11:39:06;34.85;;;13.98;;
23608;SDS011;11982;50.810;4.442;2023-07-02T11:41:38;33.00;;;14.70;;
23608;SDS011;11982;50.810;4.442;2023-07-02T11:44:05;34.17;;;14.27;;
23608;SDS011;11982;50.810;4.442;2023-07-02T11:46:32;26.08;;;13.07;;
23608;SDS011;11982;50.810;4.442;2023-07-02T11:48:59;29.45;;;13.63;;
23608;SDS011;11982;50.810;4.442;2023-07-02T11:51:25;33.13;;;13.60;;
23608;SDS011;11982;50.810;4.442;2023-07-02T11:53:51;35.60;;;14.50;;
23608;SDS011;11982;50.810;4.442;2023-07-02T11:56:17;33.97;;;15.25;;
23608;SDS011;11982;50.810;4.442;2023-07-02T11:58:42;38.53;;;14.52;;
23608;SDS011;11982;50.810;4.442;2023-07-02T12:01:08;29.63;;;14.43;;
23608;SDS011;11982;50.810;4.442;2023-07-02T12:03:34;40.47;;;16.33;;
23608;SDS011;11982;50.810;4.442;2023-07-02T12:05:59;30.52;;;14.07;;
23608;SDS011;11982;50.810;4.442;2023-07-02T12:08:25;35.47;;;14.20;;
23608;SDS011;11982;50.810;4.442;2023-07-02T12:10:51;33.65;;;13.38;;
23608;SDS011;11982;50.810;4.442;2023-07-02T12:13:17;34.78;;;15.02;;
23608;SDS011;11982;50.810;4.442;2023-07-02T12:15:42;27.30;;;14.07;;
23608;SDS011;11982;50.810;4.442;2023-07-02T12:18:09;32.08;;;13.80;;
23608;SDS011;11982;50.810;4.442;2023-07-02T12:20:35;35.05;;;13.93;;
23608;SDS011;11982;50.810;4.442;2023-07-02T12:23:00;34.17;;;13.25;;
23608;SDS011;11982;50.810;4.442;2023-07-02T12:25:26;28.95;;;12.85;;
23608;SDS011;11982;50.810;4.442;2023-07-02T12:27:52;29.35;;;13.18;;
23608;SDS011;11982;50.810;4.442;2023-07-02T12:30:18;28.42;;;13.95;;
23608;SDS011;11982;50.810;4.442;2023-07-02T12:32:44;30.25;;;12.65;;
23608;SDS011;11982;50.810;4.442;2023-07-02T12:35:10;34.40;;;13.60;;
23608;SDS011;11982;50.810;4.442;2023-07-02T12:37:46;30.75;;;12.95;;
23608;SDS011;11982;50.810;4.442;2023-07-02T12:40:13;28.73;;;12.95;;
23608;SDS011;11982;50.810;4.442;2023-07-02T12:42:40;28.45;;;14.05;;
23608;SDS011;11982;50.810;4.442;2023-07-02T12:45:07;28.33;;;12.77;;
23608;SDS011;11982;50.810;4.442;2023-07-02T12:47:33;30.27;;;12.13;;
23608;SDS011;11982;50.810;4.442;2023-07-02T12:49:59;25.38;;;12.65;;
23608;SDS011;11982;50.810;4.442;2023-07-02T12:52:25;28.95;;;13.13;;
23608;SDS011;11982;50.810;4.442;2023-07-02T12:54:51;30.27;;;13.60;;
23608;SDS011;11982;50.810;4.442;2023-07-02T12:57:17;34.58;;;13.65;;
23608;SDS011;11982;50.810;4.442;2023-07-02T12:59:43;26.88;;;12.07;;
23608;SDS011;11982;50.810;4.442;2023-07-02T13:02:09;29.92;;;13.73;;
23608;SDS011;11982;50.810;4.442;2023-07-02T13:04:36;27.58;;;12.80;;
23608;SDS011;11982;50.810;4.442;2023-07-02T13:07:02;25.08;;;12.30;;
23608;SDS011;11982;50.810;4.442;2023-07-02T13:09:28;24.45;;;12.18;;
23608;SDS011;11982;50.810;4.442;2023-07-02T13:11:54;23.70;;;11.35;;
23608;SDS011;11982;50.810;4.442;2023-07-02T13:14:19;32.28;;;12.30;;
23608;SDS011;11982;50.810;4.442;2023-07-02T13:16:45;31.33;;;12.50;;
23608;SDS011;11982;50.810;4.442;2023-07-02T13:19:11;28.58;;;11.68;;
23608;SDS011;11982;50.810;4.442;2023-07-02T13:21:37;26.27;;;11.98;;
23608;SDS011;11982;50.810;4.442;2023-07-02T13:24:03;25.80;;;12.43;;
23608;SDS011;11982;50.810;4.442;2023-07-02T13:26:29;25.98;;;11.27;;
23608;SDS011;11982;50.810;4.442;2023-07-02T13:28:54;25.80;;;11.68;;
23608;SDS011;11982;50.810;4.442;2023-07-02T13:31:20;29.80;;;12.15;;
23608;SDS011;11982;50.810;4.442;2023-07-02T13:33:46;27.02;;;11.55;;
23608;SDS011;11982;50.810;4.442;2023-07-02T13:36:11;25.38;;;12.02;;
23608;SDS011;11982;50.810;4.442;2023-07-02T13:38:37;26.40;;;10.82;;
23608;SDS011;11982;50.810;4.442;2023-07-02T13:41:03;24.90;;;10.75;;
23608;SDS011;11982;50.810;4.442;2023-07-02T13:43:29;25.23;;;11.05;;
23608;SDS011;11982;50.810;4.442;2023-07-02T13:45:54;25.98;;;11.32;;
23608;SDS011;11982;50.810;4.442;2023-07-02T13:48:20;24.00;;;11.15;;
23608;SDS011;11982;50.810;4.442;2023-07-02T13:50:46;26.90;;;11.60;;
23608;SDS011;11982;50.810;4.442;2023-07-02T13:53:11;26.30;;;11.48;;
23608;SDS011;11982;50.810;4.442;2023-07-02T13:55:37;26.65;;;11.75;;
23608;SDS011;11982;50.810;4.442;2023-07-02T13:58:03;26.83;;;11.93;;
23608;SDS011;11982;50.810;4.442;2023-07-02T14:00:29;24.77;;;11.43;;
23608;SDS011;11982;50.810;4.442;2023-07-02T14:02:55;24.42;;;10.63;;
23608;SDS011;11982;50.810;4.442;2023-07-02T14:05:20;28.55;;;12.25;;
23608;SDS011;11982;50.810;4.442;2023-07-02T14:07:46;31.08;;;11.73;;
23608;SDS011;11982;50.810;4.442;2023-07-02T14:10:13;26.92;;;11.63;;
23608;SDS011;11982;50.810;4.442;2023-07-02T14:12:39;24.45;;;11.40;;
23608;SDS011;11982;50.810;4.442;2023-07-02T14:15:07;27.75;;;12.35;;
23608;SDS011;11982;50.810;4.442;2023-07-02T14:17:33;23.00;;;11.27;;
23608;SDS011;11982;50.810;4.442;2023-07-02T14:19:59;27.38;;;11.32;;
23608;SDS011;11982;50.810;4.442;2023-07-02T14:22:25;24.38;;;10.88;;
23608;SDS011;11982;50.810;4.442;2023-07-02T14:24:50;23.42;;;10.85;;